createdAt,value
2022-08-27T00:02:17.523Z,25.30
2022-08-27T00:09:00.107Z,23.50
2022-08-27T00:15:42.692Z,24.27
2022-08-27T00:22:25.764Z,26.98
2022-08-27T00:29:08.456Z,25.48
2022-08-27T00:35:52.152Z,26.70
2022-08-27T00:42:35.135Z,25.83
2022-08-27T00:49:20.606Z,27.92
2022-08-27T00:56:18.037Z,27.73
2022-08-27T01:03:00.819Z,31.63
2022-08-27T01:09:45.507Z,29.80
2022-08-27T01:16:35.801Z,28.83
2022-08-27T01:23:48.730Z,30.55
2022-08-27T01:30:32.419Z,32.05
2022-08-27T01:37:23.510Z,31.13
2022-08-27T01:44:06.916Z,31.20
2022-08-27T01:50:50.274Z,30.95
2022-08-27T01:57:35.291Z,31.65
2022-08-27T02:04:19.741Z,32.83
2022-08-27T02:11:04.457Z,31.90
2022-08-27T02:17:48.371Z,34.92
2022-08-27T02:24:32.132Z,34.30
2022-08-27T02:31:17.978Z,30.02
2022-08-27T02:38:02.908Z,29.83
2022-08-27T02:44:46.181Z,29.83
2022-08-27T02:51:28.622Z,27.13
2022-08-27T02:58:12.841Z,30.08
2022-08-27T03:04:55.322Z,32.72
2022-08-27T03:11:37.958Z,34.03
2022-08-27T03:18:21.631Z,33.53
2022-08-27T03:25:05.343Z,28.30
2022-08-27T03:31:48.264Z,27.48
2022-08-27T03:38:30.658Z,25.63
2022-08-27T03:45:13.059Z,26.20
2022-08-27T03:51:55.496Z,21.08
2022-08-27T03:58:39.081Z,21.90
2022-08-27T04:05:22.779Z,25.05
2022-08-27T04:12:05.685Z,26.10
2022-08-27T04:18:48.057Z,28.10
2022-08-27T04:25:30.883Z,31.17
2022-08-27T04:32:13.505Z,34.20
2022-08-27T04:38:55.863Z,35.33
2022-08-27T04:45:46.091Z,33.30
2022-08-27T04:52:28.603Z,36.90
2022-08-27T04:59:11.218Z,38.78
2022-08-27T05:05:59.218Z,39.53
2022-08-27T05:12:44.125Z,38.88
2022-08-27T05:26:28.124Z,37.22
2022-08-27T05:33:11.523Z,36.45
2022-08-27T05:39:54.144Z,36.60
2022-08-27T05:46:39.930Z,38.15
2022-08-27T05:53:23.430Z,36.20
2022-08-27T06:00:25.262Z,35.90
2022-08-27T06:07:10.957Z,36.20
2022-08-27T06:13:53.346Z,36.70
2022-08-27T06:20:35.762Z,36.53
2022-08-27T06:27:19.814Z,36.50
2022-08-27T06:34:07.713Z,35.30
2022-08-27T06:40:50.211Z,32.95
2022-08-27T06:47:33.168Z,33.92
2022-08-27T06:54:16.676Z,33.08
2022-08-27T07:00:59.283Z,32.00
2022-08-27T07:07:46.655Z,32.35
2022-08-27T07:14:37.551Z,32.22
2022-08-27T07:21:21.772Z,33.40
2022-08-27T07:28:04.304Z,29.90
2022-08-27T07:34:46.754Z,29.48
2022-08-27T07:41:53.740Z,29.38
2022-08-27T07:48:36.613Z,33.63
2022-08-27T07:55:20.407Z,32.15
2022-08-27T08:02:04.089Z,32.97
2022-08-27T08:08:46.676Z,34.13
2022-08-27T08:15:29.974Z,31.40
2022-08-27T08:22:12.670Z,34.47
2022-08-27T08:28:55.215Z,35.65
2022-08-27T08:35:41.344Z,37.55
2022-08-27T08:42:46.990Z,43.13
2022-08-27T08:49:38.553Z,44.28
2022-08-27T08:56:28.568Z,42.45
2022-08-27T09:03:13.994Z,38.05
2022-08-27T09:10:41.299Z,33.20
2022-08-27T09:17:24.276Z,29.40
2022-08-27T09:24:33.959Z,26.60
2022-08-27T09:31:19.446Z,21.80
2022-08-27T09:38:05.175Z,20.58
2022-08-27T09:44:52.934Z,21.15
2022-08-27T09:51:41.618Z,21.27
2022-08-27T09:58:52.032Z,20.25
2022-08-27T10:05:53.982Z,20.77
2022-08-27T10:12:55.445Z,19.83
2022-08-27T10:19:49.813Z,22.42
2022-08-27T10:26:50.322Z,21.95
2022-08-27T10:34:00.235Z,25.10
2022-08-27T10:40:56.934Z,25.80
2022-08-27T10:48:03.564Z,23.95
2022-08-27T10:54:51.086Z,24.73
2022-08-27T11:01:52.329Z,24.90
2022-08-27T11:08:50.924Z,25.85
2022-08-27T11:15:44.804Z,25.25
2022-08-27T11:22:27.134Z,25.40
2022-08-27T11:29:38.848Z,26.08
2022-08-27T11:36:41.399Z,27.48
2022-08-27T11:43:28.199Z,27.80
2022-08-27T11:50:19.344Z,28.27
2022-08-27T11:57:01.732Z,27.00
2022-08-27T12:03:44.339Z,29.10
2022-08-27T12:10:40.266Z,29.70
2022-08-27T12:17:45.406Z,30.38
2022-08-27T12:24:30.705Z,32.72
2022-08-27T12:31:21.475Z,31.33
2022-08-27T12:38:13.755Z,29.33
2022-08-27T12:44:59.771Z,26.50
2022-08-27T12:51:45.200Z,27.40
2022-08-27T12:58:54.904Z,25.70
2022-08-27T13:05:47.202Z,28.17
2022-08-27T13:12:29.965Z,26.73
2022-08-27T13:19:32.408Z,27.27
2022-08-27T13:26:22.710Z,29.52
2022-08-27T13:33:07.546Z,30.85
2022-08-27T13:39:53.530Z,28.15
2022-08-27T13:46:44.840Z,28.52
2022-08-27T13:53:49.882Z,26.55
2022-08-27T14:00:33.783Z,29.02
2022-08-27T14:07:34.106Z,26.88
2022-08-27T14:14:18.737Z,26.13
2022-08-27T14:21:03.214Z,35.65
2022-08-27T14:27:53.003Z,27.65
2022-08-27T14:34:37.417Z,28.67
2022-08-27T14:41:21.530Z,28.48
2022-08-27T14:48:33.311Z,24.52
2022-08-27T14:55:15.748Z,27.00
2022-08-27T15:01:59.303Z,24.35
2022-08-27T15:08:42.231Z,23.73
2022-08-27T15:15:27.229Z,22.23
2022-08-27T15:22:22.024Z,25.70
2022-08-27T15:29:06.698Z,23.48
2022-08-27T15:35:49.537Z,22.55
2022-08-27T15:42:31.936Z,22.58
2022-08-27T15:49:15.589Z,31.02
2022-08-27T15:55:58.280Z,22.50
2022-08-27T16:02:41.750Z,23.88
2022-08-27T16:09:24.205Z,20.98
2022-08-27T16:16:07.553Z,20.73
2022-08-27T16:22:50.437Z,22.60
2022-08-27T16:29:32.983Z,21.85
2022-08-27T16:36:15.358Z,27.25
2022-08-27T16:42:58.673Z,33.25
2022-08-27T16:50:00.476Z,29.75
2022-08-27T16:56:43.943Z,27.13
2022-08-27T17:03:30.480Z,28.27
2022-08-27T17:10:13.627Z,29.17
2022-08-27T17:16:56.071Z,29.25
2022-08-27T17:23:41.664Z,31.00
2022-08-27T17:30:24.090Z,31.35
2022-08-27T17:37:06.476Z,36.00
2022-08-27T17:43:49.266Z,30.77
2022-08-27T17:50:32.306Z,31.15
2022-08-27T17:57:22.424Z,29.55
2022-08-27T18:04:05.557Z,33.22
2022-08-27T18:10:48.611Z,37.30
2022-08-27T18:17:31.693Z,34.27
2022-08-27T18:24:15.330Z,34.55
2022-08-27T18:30:58.316Z,36.13
2022-08-27T18:37:46.775Z,35.42
2022-08-27T18:44:31.131Z,39.78
2022-08-27T18:51:16.050Z,36.10
2022-08-27T18:57:58.497Z,39.33
2022-08-27T19:04:41.418Z,38.35
2022-08-27T19:11:23.819Z,38.50
2022-08-27T19:18:06.247Z,39.92
2022-08-27T19:24:51.011Z,39.40
2022-08-27T19:31:36.389Z,41.20
2022-08-27T19:38:19.227Z,41.63
2022-08-27T19:45:01.666Z,39.95
2022-08-27T19:51:44.130Z,39.42
2022-08-27T19:58:27.772Z,38.85
2022-08-27T20:05:20.013Z,41.15
2022-08-27T20:12:02.944Z,37.40
2022-08-27T20:18:45.317Z,35.17
2022-08-27T20:25:27.706Z,36.00
2022-08-27T20:32:10.256Z,33.60
2022-08-27T20:38:52.987Z,31.20
2022-08-27T20:45:37.185Z,38.30
2022-08-27T20:52:19.770Z,41.80
2022-08-27T20:59:20.685Z,35.67
2022-08-27T21:06:03.276Z,31.67
2022-08-27T21:12:45.856Z,32.30
2022-08-27T21:19:28.491Z,30.80
2022-08-27T21:26:12.574Z,28.17
2022-08-27T21:32:55.989Z,27.70
2022-08-27T21:39:40.558Z,32.10
2022-08-27T21:46:23.092Z,33.17
2022-08-27T21:53:06.159Z,32.50
2022-08-27T21:59:49.969Z,37.53
2022-08-27T22:06:32.543Z,33.60
2022-08-27T22:13:15.897Z,30.50
2022-08-27T22:19:58.888Z,30.52
2022-08-27T22:26:42.040Z,30.83
2022-08-27T22:33:25.159Z,26.73
2022-08-27T22:40:12.232Z,27.52
2022-08-27T22:47:03.023Z,25.75
2022-08-27T22:53:46.416Z,22.13
2022-08-27T23:00:32.782Z,23.60
2022-08-27T23:07:15.793Z,21.30
2022-08-27T23:14:00.136Z,23.55
2022-08-27T23:20:43.079Z,22.60
2022-08-27T23:27:28.977Z,22.00
2022-08-27T23:34:12.080Z,30.23
2022-08-27T23:40:55.947Z,22.73
2022-08-27T23:47:39.096Z,20.85
2022-08-27T23:54:22.069Z,21.95
